Portada
METAR-TAF:

METAR-TAF

Aeropuertos :

Aeropuerto de Valladolid

Valladolid, España

latitud: 41-43N, longitud: 004-51W, altitud: 849 m

Observación

El informe se hizo hace 29 minutos, a las 01:00 UTC
Viento 8 kt del sur-sureste
Temperatura 7°C
Humedad 87%
Presión 1021 hPa
Visibilidad 10 km o más
sin nubes por debajo de 1500 m y sin presencia de cumulonimbus.

METAR: LEVD 020100Z AUTO 16008KT CAVOK 07/05 Q1021

Hora: 02:29 (01:29 UTC)

Pronóstico

El informe se hizo hace 5 horas y 29 minutos, a las 20:00 UTC
Pronóstico válido del 01 a las 21 UTC al 02 a las 21 UTC
Viento 7 kt del sur-sureste
Visibilidad 10 km o más
Escasas nubes a una altura de 4000 ft
Probabilidad 30% :
Temporalmente
del 02 a las 13 UTC al 02 a las 19 UTC
Escasas nubes a una altura de 3500 ft, Cumulus congestus.

TAF: LEVD 012000Z 0121/0221 16007KT 9999 FEW040 TX14/0215Z TN05/0206Z PROB30 TEMPO 0213/0219 FEW035TCU

Observaciones y pronósticos meteorológicos de más de 4000 aeropuertos (mensajes METAR y TAF).

Los puntos amarillos y rojos representan las estaciones disponibles.

Ponga el ratón en el punto deseado para ver el nombre de la estación.

Haga clic para ver las observaciones y los pronósticos meteorológicos.

Para cambiar el mapa : haga clic en los botones verdes con una cruz de color negro para hacer un zoom, en el botón verde con un guión para alejar o en las flechas verdes para mapas adyacentes.


METAR-TAF: